createdAt,value
2017-06-09T17:07:53.786Z,57.53
2017-06-09T17:10:18.343Z,56.49
2017-06-09T17:12:42.785Z,56.97
2017-06-09T17:15:08.243Z,56.68
2017-06-09T17:17:32.683Z,55.32
2017-06-09T17:19:57.167Z,56.07
2017-06-09T17:22:21.676Z,56.92
2017-06-09T17:24:46.115Z,56.88
2017-06-09T17:27:10.543Z,56.35
2017-06-09T17:29:34.990Z,55.79
2017-06-09T17:31:59.428Z,55.96
2017-06-09T17:34:23.801Z,55.99
2017-06-09T17:36:39.724Z,54.61
2017-06-09T17:39:04.158Z,55.65
2017-06-09T17:41:20.044Z,55.45
2017-06-09T17:43:04.596Z,55.62
2017-06-09T17:45:28.948Z,58.48
2017-06-09T17:47:53.211Z,61.47
2017-06-09T17:50:17.523Z,64.18
2017-06-09T17:52:41.933Z,68.01
2017-06-09T17:55:06.228Z,69.42
2017-06-09T17:57:30.470Z,71.06
2017-06-09T17:59:37.818Z,70.48
2017-06-09T18:02:02.008Z,71.28
2017-06-09T18:04:26.184Z,72.02
2017-06-09T18:06:50.381Z,72.99
2017-06-09T18:09:14.563Z,71.58
2017-06-09T18:11:38.706Z,71
2017-06-09T18:14:02.856Z,69.1
2017-06-09T18:16:27.041Z,69.2
2017-06-09T18:18:51.245Z,68.71
2017-06-09T18:21:15.406Z,69.2
2017-06-09T18:23:17.338Z,68.55
2017-06-09T18:25:33.064Z,68.26
2017-06-09T18:27:48.812Z,69.1
2017-06-09T18:29:50.971Z,69.49
2017-06-09T18:32:06.764Z,73.37
2017-06-09T18:34:31.022Z,72.58
2017-06-09T18:36:55.201Z,72.28
2017-06-09T18:39:19.401Z,70.36
2017-06-09T18:41:43.680Z,69.1
2017-06-09T18:43:59.467Z,73.25
2017-06-09T18:46:23.654Z,71.42
2017-06-09T18:48:47.935Z,70.74
2017-06-09T18:50:49.842Z,70.84
2017-06-09T18:53:14.089Z,69.97
2017-06-09T18:55:38.271Z,69.81
2017-06-09T18:58:02.439Z,69.81
2017-06-09T19:00:26.654Z,69.9
2017-06-09T19:02:50.942Z,71.03
2017-06-09T19:05:15.236Z,72.77
2017-06-09T19:07:39.357Z,75.3
2017-06-09T19:10:03.528Z,77
2017-06-09T19:12:27.768Z,77.58
2017-06-09T19:14:43.558Z,76.9
2017-06-09T19:17:07.733Z,76.9
2017-06-09T19:19:09.126Z,77.67
2017-06-09T19:21:19.033Z,77.86
2017-06-09T19:23:43.215Z,77.58
2017-06-09T19:26:07.410Z,78.11
2017-06-09T19:28:31.584Z,77.92
2017-06-09T19:30:55.782Z,79.27
2017-06-09T19:33:06.188Z,79.94
2017-06-09T19:35:08.034Z,79.71
2017-06-09T19:37:10.703Z,82.65
2017-06-09T19:39:26.462Z,82.37
2017-06-09T19:41:50.644Z,82.46
2017-06-09T19:44:14.744Z,82.56
2017-06-09T19:46:21.967Z,82.85
2017-06-09T19:48:29.160Z,83.14
2017-06-09T19:50:53.184Z,82.94
2017-06-09T19:53:08.770Z,84.19
2017-06-09T19:55:32.841Z,83.04
2017-06-09T19:57:56.929Z,83.14
2017-06-09T20:00:20.999Z,83.23
2017-06-09T20:02:45.081Z,83.28
2017-06-09T20:05:00.662Z,83.04
2017-06-09T20:07:24.646Z,83.33
2017-06-09T20:09:48.620Z,83.81
2017-06-09T20:12:12.707Z,84.44
2017-06-09T20:14:36.780Z,84.16
2017-06-09T20:17:00.868Z,85.02
2017-06-09T20:19:24.968Z,85.69
2017-06-09T20:21:49.044Z,84.63
2017-06-09T20:24:13.112Z,84.54
2017-06-09T20:26:37.194Z,83.96
2017-06-09T20:28:52.883Z,84.16
2017-06-09T20:30:54.253Z,84.25
2017-06-09T20:33:18.306Z,83.96
2017-06-09T20:35:20.141Z,83.58
2017-06-09T20:37:44.254Z,84.16
2017-06-09T20:40:08.338Z,83.29
2017-06-09T20:42:32.419Z,83.86
2017-06-09T20:44:56.500Z,83.77
2017-06-09T20:47:20.592Z,84.34
2017-06-09T20:49:44.674Z,83.48
2017-06-09T20:52:08.647Z,84.16
2017-06-09T20:54:24.235Z,83.86
2017-06-09T20:56:39.878Z,83.96
2017-06-09T20:59:03.997Z,83.77
2017-06-09T21:01:28.077Z,85.21
2017-06-09T21:03:43.657Z,84.44
2017-06-09T21:06:07.646Z,85.11
2017-06-09T21:08:31.714Z,84.06
2017-06-09T21:10:47.300Z,85.21
2017-06-09T21:13:11.384Z,84.92
2017-06-09T21:15:35.461Z,83.86
2017-06-09T21:17:59.538Z,84.44
2017-06-09T21:20:23.631Z,84.54
2017-06-09T21:22:47.614Z,85.21
2017-06-09T21:25:11.586Z,85.78
2017-06-09T21:27:04.512Z,85.21
2017-06-09T21:29:28.517Z,86.32
2017-06-09T21:31:52.513Z,85.75
2017-06-09T21:34:16.581Z,85.78
2017-06-09T21:36:32.130Z,85.75
2017-06-09T21:38:56.137Z,86.13
2017-06-09T21:41:06.792Z,86.13
2017-06-09T21:43:17.154Z,85.98
2017-06-09T21:45:41.080Z,87.38
2017-06-09T21:48:05.024Z,86.52
2017-06-09T21:50:29.005Z,86.52
2017-06-09T21:52:44.554Z,85.88
2017-06-09T21:55:08.562Z,84.34
2017-06-09T21:57:10.465Z,85.21
2017-06-09T21:59:26.111Z,85.98
2017-06-09T22:01:41.663Z,85.84
2017-06-09T22:04:05.571Z,86.13
2017-06-09T22:06:21.155Z,87.09
2017-06-09T22:08:45.133Z,87.38
2017-06-09T22:11:09.114Z,87.09
2017-06-09T22:13:24.691Z,85.6
2017-06-09T22:15:48.689Z,84.44
2017-06-09T22:18:04.257Z,83.42
2017-06-09T22:20:19.803Z,82.94
2017-06-09T22:22:52.830Z,82.46
2017-06-09T22:24:54.175Z,82.65
2017-06-09T22:27:09.765Z,83.29
2017-06-09T22:29:03.128Z,83.52
2017-06-09T22:31:27.198Z,83.42
2017-06-09T22:33:51.180Z,83.86
2017-06-09T22:36:15.153Z,84.83
2017-06-09T22:38:39.132Z,84.88
2017-06-09T22:41:03.117Z,85.65
2017-06-09T22:43:27.106Z,85.94
2017-06-09T22:45:51.075Z,87.67
2017-06-09T22:48:15.054Z,86.61
2017-06-09T22:50:39.042Z,86.9
2017-06-09T22:53:03.016Z,87.09
2017-06-09T22:55:26.897Z,87.09
2017-06-09T22:57:50.885Z,87.48
2017-06-09T23:00:14.849Z,87.48
2017-06-09T23:02:30.324Z,88.01
2017-06-09T23:04:54.311Z,88.34
2017-06-09T23:07:18.291Z,88.06
2017-06-09T23:09:33.770Z,87.86
2017-06-09T23:11:57.748Z,88.24
2017-06-09T23:14:07.625Z,88.15
2017-06-09T23:16:31.572Z,88.06
2017-06-09T23:18:55.554Z,87.57
2017-06-09T23:21:11.137Z,88.06
2017-06-09T23:23:26.615Z,88.82
2017-06-09T23:25:50.597Z,89.07
2017-06-09T23:28:14.575Z,88.78
2017-06-09T23:30:38.559Z,89.21
2017-06-09T23:33:02.534Z,89.07
2017-06-09T23:35:26.515Z,88.87
2017-06-09T23:37:42.061Z,89.07
2017-06-09T23:40:05.974Z,89.83
2017-06-09T23:42:29.855Z,91.04
2017-06-09T23:44:53.829Z,90.75
2017-06-09T23:47:09.314Z,91.28
2017-06-09T23:49:33.287Z,91.13
2017-06-09T23:51:48.766Z,91.71
2017-06-09T23:54:12.644Z,93.05
2017-06-09T23:56:36.518Z,93.44
2017-06-09T23:59:00.400Z,92.77
